createdAt,value
2022-12-25T00:01:40.557Z,82.43
2022-12-25T00:04:07.359Z,81.87
2022-12-25T00:06:33.961Z,82.57
2022-12-25T00:09:00.694Z,82.84
2022-12-25T00:11:27.329Z,82.92
2022-12-25T00:13:54.005Z,81.77
2022-12-25T00:16:24.043Z,82.23
2022-12-25T00:18:51.629Z,82.82
2022-12-25T00:21:19.338Z,82.53
2022-12-25T00:23:45.988Z,82.56
2022-12-25T00:26:16.466Z,82.15
2022-12-25T00:28:43.447Z,82.46
2022-12-25T00:31:14.005Z,82.34
2022-12-25T00:33:42.301Z,82.19
2022-12-25T00:36:10.735Z,82.44
2022-12-25T00:38:39.719Z,81.93
2022-12-25T00:41:08.076Z,82.11
2022-12-25T00:43:34.802Z,82.36
2022-12-25T00:46:03.404Z,81.95
2022-12-25T00:48:31.046Z,82.16
2022-12-25T00:51:01.124Z,82.03
2022-12-25T00:53:28.814Z,82.14
2022-12-25T00:55:58.928Z,82.07
2022-12-25T00:58:27.495Z,82.10
2022-12-25T01:00:54.411Z,82.04
2022-12-25T01:03:21.128Z,82.02
2022-12-25T01:05:59.531Z,82.21
2022-12-25T01:08:27.398Z,82.11
2022-12-25T01:10:56.652Z,82.07
2022-12-25T01:13:23.452Z,82.29
2022-12-25T01:15:52.198Z,82.53
2022-12-25T01:18:19.799Z,82.28
2022-12-25T01:20:47.205Z,82.23
2022-12-25T01:23:14.997Z,81.84
2022-12-25T01:25:42.065Z,82.23
2022-12-25T01:28:09.159Z,82.18
2022-12-25T01:30:35.720Z,82.14
2022-12-25T01:33:02.311Z,82.04
2022-12-25T01:35:28.886Z,81.96
2022-12-25T01:37:55.545Z,82.07
2022-12-25T01:40:22.153Z,82.60
2022-12-25T01:42:48.860Z,82.21
2022-12-25T01:48:11.931Z,81.99
2022-12-25T01:50:40.924Z,82.43
2022-12-25T01:53:08.042Z,82.23
2022-12-25T01:55:36.286Z,82.47
2022-12-25T01:58:03.788Z,82.50
2022-12-25T02:00:30.479Z,82.83
2022-12-25T02:02:57.910Z,83.18
2022-12-25T02:05:31.270Z,82.81
2022-12-25T02:08:02.082Z,82.67
2022-12-25T02:10:29.039Z,82.38
2022-12-25T02:12:56.044Z,82.70
2022-12-25T02:15:30.290Z,82.66
2022-12-25T02:18:22.440Z,82.84
2022-12-25T02:31:48.605Z,83.21
2022-12-25T02:42:50.723Z,82.94
2022-12-25T02:45:43.758Z,83.72
2022-12-25T02:48:32.351Z,83.51
2022-12-25T02:51:24.192Z,83.79
2022-12-25T02:54:14.899Z,83.46
2022-12-25T02:57:05.368Z,83.42
2022-12-25T02:59:55.976Z,83.34
2022-12-25T03:02:45.344Z,83.33
2022-12-25T03:05:37.003Z,83.56
2022-12-25T03:08:07.829Z,83.57
2022-12-25T03:11:00.137Z,83.38
2022-12-25T03:13:34.265Z,83.42
2022-12-25T03:16:21.022Z,83.46
2022-12-25T03:18:48.276Z,83.71
2022-12-25T03:21:34.820Z,83.59
2022-12-25T03:24:21.864Z,83.41
2022-12-25T03:26:56.820Z,83.64
2022-12-25T03:29:51.533Z,82.69
2022-12-25T03:32:40.800Z,83.24
2022-12-25T03:43:50.691Z,83.23
2022-12-25T03:46:40.832Z,83.91
2022-12-25T03:49:45.227Z,83.81
2022-12-25T03:52:35.793Z,83.62
2022-12-25T03:55:26.931Z,83.50
2022-12-25T03:58:13.428Z,83.50
2022-12-25T04:01:00.136Z,84.12
2022-12-25T04:03:46.970Z,83.34
2022-12-25T04:06:33.518Z,83.28
2022-12-25T04:09:20.117Z,83.35
2022-12-25T04:12:06.710Z,83.44
2022-12-25T04:14:53.358Z,83.49
2022-12-25T04:17:39.953Z,83.71
2022-12-25T04:20:27.237Z,83.74
2022-12-25T04:23:13.891Z,83.58
2022-12-25T04:26:00.441Z,83.97
2022-12-25T04:28:47.091Z,83.78
2022-12-25T04:31:33.656Z,83.44
2022-12-25T04:34:20.291Z,83.45
2022-12-25T04:36:46.855Z,83.20
2022-12-25T04:39:13.529Z,83.10
2022-12-25T04:41:40.133Z,83.41
2022-12-25T04:44:06.790Z,83.09
2022-12-25T04:46:33.454Z,83.50
2022-12-25T04:49:00.283Z,83.76
2022-12-25T04:51:27.094Z,83.51
2022-12-25T04:53:54.860Z,83.45
2022-12-25T04:56:22.138Z,82.96
2022-12-25T04:58:49.598Z,83.32
2022-12-25T05:01:16.949Z,83.37
2022-12-25T05:03:43.767Z,83.32
2022-12-25T05:06:10.876Z,83.29
2022-12-25T05:08:37.698Z,83.28
2022-12-25T05:11:09.686Z,83.42
2022-12-25T05:13:36.679Z,83.20
2022-12-25T05:16:09.569Z,83.50
2022-12-25T05:18:36.431Z,83.58
2022-12-25T05:21:04.550Z,83.53
2022-12-25T05:23:31.480Z,83.28
2022-12-25T05:25:58.440Z,83.03
2022-12-25T05:28:24.991Z,83.03
2022-12-25T05:30:51.754Z,83.20
2022-12-25T05:33:18.545Z,83.10
2022-12-25T05:35:45.176Z,82.98
2022-12-25T05:38:11.775Z,82.79
2022-12-25T05:40:41.091Z,82.75
2022-12-25T05:43:08.066Z,82.81
2022-12-25T05:45:34.821Z,82.08
2022-12-25T05:48:01.525Z,82.12
2022-12-25T05:50:28.236Z,82.13
2022-12-25T05:52:54.850Z,82.43
2022-12-25T05:55:21.541Z,82.34
2022-12-25T05:57:48.552Z,82.13
2022-12-25T06:00:15.351Z,82.19
2022-12-25T06:02:42.186Z,82.21
2022-12-25T06:05:09.991Z,82.17
2022-12-25T06:07:36.636Z,81.95
2022-12-25T06:10:03.382Z,81.91
2022-12-25T06:12:30.044Z,81.94
2022-12-25T06:14:56.628Z,81.95
2022-12-25T06:17:25.808Z,82.50
2022-12-25T06:19:53.406Z,82.31
2022-12-25T06:22:20.511Z,82.46
2022-12-25T06:24:47.211Z,82.60
2022-12-25T06:27:14.079Z,81.93
2022-12-25T06:29:40.829Z,82.33
2022-12-25T06:32:07.432Z,82.31
2022-12-25T06:34:33.995Z,81.49
2022-12-25T06:37:00.796Z,82.47
2022-12-25T06:39:27.350Z,82.44
2022-12-25T06:41:54.071Z,82.70
2022-12-25T06:44:20.723Z,82.75
2022-12-25T06:46:47.300Z,82.56
2022-12-25T06:49:13.815Z,82.20
2022-12-25T06:51:40.532Z,83.00
2022-12-25T06:54:07.100Z,83.02
2022-12-25T06:56:34.148Z,82.78
2022-12-25T06:59:03.414Z,83.10
2022-12-25T07:01:34.419Z,82.80
2022-12-25T07:04:03.641Z,83.37
2022-12-25T07:06:30.606Z,83.34
2022-12-25T07:08:57.313Z,83.85
2022-12-25T07:11:24.002Z,83.34
2022-12-25T07:13:51.093Z,82.89
2022-12-25T07:16:17.976Z,83.34
2022-12-25T07:18:44.852Z,83.10
2022-12-25T07:21:14.400Z,83.32
2022-12-25T07:23:41.286Z,83.36
2022-12-25T07:26:08.010Z,83.77
2022-12-25T07:28:34.831Z,83.64
2022-12-25T07:31:03.809Z,83.23
2022-12-25T07:33:30.782Z,83.29
2022-12-25T07:35:57.578Z,82.92
2022-12-25T07:38:24.320Z,82.96
2022-12-25T07:40:51.189Z,83.67
2022-12-25T07:43:17.993Z,83.68
2022-12-25T07:45:44.946Z,83.09
2022-12-25T07:48:16.413Z,83.48
2022-12-25T07:50:43.572Z,83.34
2022-12-25T07:53:10.182Z,83.58
2022-12-25T07:55:36.789Z,83.79
2022-12-25T07:58:03.380Z,83.29
2022-12-25T08:00:33.673Z,84.03
2022-12-25T08:03:00.637Z,84.09
2022-12-25T08:05:27.447Z,83.89
2022-12-25T08:07:57.742Z,83.59
2022-12-25T08:10:25.259Z,83.79
2022-12-25T08:12:52.197Z,84.19
2022-12-25T08:15:18.986Z,84.17
2022-12-25T08:17:45.801Z,84.21
2022-12-25T08:20:12.876Z,84.00
2022-12-25T08:22:39.708Z,83.81
2022-12-25T08:25:06.827Z,84.13
2022-12-25T08:27:34.368Z,84.10
2022-12-25T08:30:00.994Z,84.57
2022-12-25T08:32:27.705Z,84.33
2022-12-25T08:34:54.340Z,84.38
2022-12-25T08:37:20.955Z,83.90
2022-12-25T08:39:47.512Z,84.01
2022-12-25T08:42:15.304Z,84.08
2022-12-25T08:44:42.023Z,83.99
2022-12-25T08:47:08.746Z,84.06
2022-12-25T08:49:35.397Z,84.40
2022-12-25T08:52:02.319Z,83.94
2022-12-25T08:54:31.012Z,83.88
2022-12-25T08:57:02.671Z,83.58
2022-12-25T08:59:29.958Z,83.83
2022-12-25T09:01:56.624Z,84.02
2022-12-25T09:04:23.358Z,83.82
2022-12-25T09:06:51.152Z,83.57
2022-12-25T09:09:17.732Z,83.32
2022-12-25T09:11:44.365Z,83.31
2022-12-25T09:14:13.616Z,83.42
2022-12-25T09:16:40.175Z,83.52
2022-12-25T09:19:07.315Z,83.44
2022-12-25T09:21:36.826Z,83.67
2022-12-25T09:24:05.203Z,82.93
2022-12-25T09:26:31.806Z,83.37
2022-12-25T09:28:58.426Z,83.92
2022-12-25T09:31:25.088Z,84.09
2022-12-25T09:33:52.036Z,83.38
2022-12-25T09:36:19.135Z,83.34
2022-12-25T09:38:45.725Z,84.14
2022-12-25T09:44:17.626Z,83.86
2022-12-25T09:46:50.151Z,83.22
2022-12-25T09:49:24.577Z,83.16
2022-12-25T09:51:58.641Z,83.51
2022-12-25T09:54:38.810Z,83.70
2022-12-25T09:57:05.976Z,83.11
2022-12-25T09:59:32.676Z,83.23
2022-12-25T10:02:25.756Z,83.51
2022-12-25T10:10:33.284Z,84.18
2022-12-25T10:13:26.407Z,83.42
2022-12-25T10:16:13.870Z,83.12
2022-12-25T10:18:52.456Z,83.92
2022-12-25T10:21:20.627Z,83.76
2022-12-25T10:23:52.919Z,83.41
2022-12-25T10:26:22.955Z,82.81
2022-12-25T10:29:19.701Z,82.84
2022-12-25T10:31:48.765Z,82.53
2022-12-25T10:34:16.216Z,83.04
2022-12-25T10:36:45.830Z,82.40
2022-12-25T10:39:17.853Z,82.49
2022-12-25T10:42:24.376Z,81.87
2022-12-25T10:47:38.129Z,82.37
2022-12-25T10:50:12.815Z,82.08
2022-12-25T10:52:54.101Z,82.56
2022-12-25T10:55:26.536Z,82.59
2022-12-25T10:57:55.327Z,82.48
2022-12-25T11:00:24.827Z,82.54
2022-12-25T11:02:51.935Z,82.31
2022-12-25T11:05:36.472Z,82.51
2022-12-25T11:08:04.174Z,82.33
2022-12-25T11:10:44.299Z,81.47
2022-12-25T11:13:29.411Z,81.20
2022-12-25T11:16:36.212Z,81.32
2022-12-25T11:19:03.925Z,81.70
2022-12-25T11:24:19.037Z,81.74
2022-12-25T11:26:49.271Z,81.75
2022-12-25T11:29:26.461Z,81.89
2022-12-25T11:31:55.393Z,80.70
2022-12-25T11:34:31.591Z,80.67
2022-12-25T11:36:59.845Z,80.53
2022-12-25T11:47:40.348Z,80.99
2022-12-25T11:52:52.942Z,80.01
2022-12-25T12:01:06.515Z,79.13
2022-12-25T12:03:39.688Z,79.64
2022-12-25T12:06:15.957Z,79.54
2022-12-25T12:08:43.413Z,80.40
2022-12-25T12:11:19.609Z,79.48
2022-12-25T12:16:30.301Z,79.49
2022-12-25T12:18:57.242Z,80.31
2022-12-25T12:21:27.370Z,79.26
2022-12-25T12:24:13.742Z,80.36
2022-12-25T12:26:43.578Z,79.25
2022-12-25T12:29:34.163Z,79.30
2022-12-25T12:32:03.966Z,80.18
2022-12-25T12:34:42.500Z,80.31
2022-12-25T12:39:55.636Z,79.56
2022-12-25T12:42:26.459Z,80.58
2022-12-25T12:44:57.021Z,80.33
2022-12-25T12:53:31.309Z,79.38
2022-12-25T12:56:13.141Z,80.25
2022-12-25T12:58:46.267Z,80.48
2022-12-25T13:01:31.063Z,80.28
2022-12-25T13:09:49.608Z,79.18
2022-12-25T13:12:17.698Z,80.33
2022-12-25T13:14:46.566Z,80.06
2022-12-25T13:17:20.245Z,79.38
2022-12-25T13:19:51.118Z,79.36
2022-12-25T13:22:32.011Z,80.00
2022-12-25T13:25:02.062Z,78.89
2022-12-25T13:27:30.788Z,79.55
2022-12-25T13:29:58.867Z,79.07
2022-12-25T13:32:29.602Z,78.54
2022-12-25T13:34:56.935Z,80.05
2022-12-25T13:37:27.123Z,78.91
2022-12-25T13:39:55.760Z,80.11
2022-12-25T13:42:27.106Z,79.86
2022-12-25T13:47:37.156Z,78.62
2022-12-25T13:50:26.766Z,79.17
2022-12-25T13:52:55.768Z,79.13
2022-12-25T13:55:25.926Z,79.12
2022-12-25T13:57:54.614Z,79.60
2022-12-25T14:03:00.097Z,78.95
2022-12-25T14:05:34.586Z,79.40
2022-12-25T14:08:18.152Z,79.17
2022-12-25T14:10:48.345Z,78.97
2022-12-25T14:13:16.247Z,79.79
2022-12-25T14:15:45.065Z,79.35
2022-12-25T14:18:17.171Z,78.51
2022-12-25T14:21:04.071Z,79.84
2022-12-25T14:23:47.741Z,78.55
2022-12-25T14:26:20.016Z,79.37
2022-12-25T14:28:49.163Z,78.99
2022-12-25T14:31:16.767Z,79.01
2022-12-25T14:33:43.482Z,79.40
2022-12-25T14:36:12.184Z,80.06
2022-12-25T14:38:41.635Z,79.03
2022-12-25T14:41:38.089Z,79.38
2022-12-25T14:44:24.462Z,79.68
2022-12-25T14:46:51.257Z,79.44
2022-12-25T14:49:24.225Z,79.04
2022-12-25T14:51:51.154Z,78.95
2022-12-25T14:54:22.448Z,79.87
2022-12-25T14:56:53.063Z,78.65
2022-12-25T14:59:21.894Z,79.73
2022-12-25T15:01:57.093Z,79.24
2022-12-25T15:04:24.766Z,79.78
2022-12-25T15:09:35.987Z,78.78
2022-12-25T15:12:03.224Z,79.75
2022-12-25T15:14:31.566Z,79.74
2022-12-25T15:17:01.484Z,79.08
2022-12-25T15:19:37.033Z,79.64
2022-12-25T15:22:04.430Z,79.03
2022-12-25T15:24:32.249Z,79.88
2022-12-25T15:27:00.604Z,79.16
2022-12-25T15:30:00.154Z,79.93
2022-12-25T15:32:19.236Z,79.89
2022-12-25T15:34:47.212Z,78.71
2022-12-25T15:37:14.555Z,79.57
2022-12-25T15:39:41.719Z,79.52
2022-12-25T15:42:12.791Z,78.79
2022-12-25T15:44:41.186Z,78.48
2022-12-25T15:47:10.416Z,78.45
2022-12-25T15:49:37.035Z,78.37
2022-12-25T15:52:05.491Z,78.78
2022-12-25T15:54:32.682Z,78.29
2022-12-25T15:57:03.740Z,77.67
2022-12-25T15:59:31.115Z,77.76
2022-12-25T16:02:00.281Z,78.47
2022-12-25T16:04:28.588Z,78.41
2022-12-25T16:06:56.352Z,77.83
2022-12-25T16:09:22.957Z,77.91
2022-12-25T16:11:50.244Z,78.23
2022-12-25T16:14:17.102Z,77.23
2022-12-25T16:16:43.689Z,77.96
2022-12-25T16:19:10.427Z,78.15
2022-12-25T16:21:40.260Z,77.14
2022-12-25T16:24:07.562Z,77.52
2022-12-25T16:26:34.667Z,77.90
2022-12-25T16:29:06.767Z,77.85
2022-12-25T16:31:34.444Z,77.86
2022-12-25T16:34:01.618Z,76.98
2022-12-25T16:36:28.420Z,77.66
2022-12-25T16:38:55.197Z,77.55
2022-12-25T16:41:21.915Z,77.61
2022-12-25T16:43:49.061Z,77.72
2022-12-25T16:46:18.639Z,77.42
2022-12-25T16:48:45.626Z,77.02
2022-12-25T16:51:17.462Z,77.51
2022-12-25T16:53:44.965Z,77.26
2022-12-25T16:56:14.840Z,77.56
2022-12-25T16:58:42.748Z,77.72
2022-12-25T17:01:11.831Z,77.72
2022-12-25T17:03:39.165Z,77.50
2022-12-25T17:06:14.773Z,77.42
2022-12-25T17:08:41.716Z,77.41
2022-12-25T17:11:08.950Z,77.40
2022-12-25T17:13:36.214Z,77.61
2022-12-25T17:16:24.837Z,77.32
2022-12-25T17:18:55.915Z,77.44
2022-12-25T17:21:24.135Z,77.65
2022-12-25T17:23:50.991Z,78.09
2022-12-25T17:26:17.627Z,77.64
2022-12-25T17:28:44.477Z,77.94
2022-12-25T17:31:13.415Z,78.36
2022-12-25T17:33:42.999Z,77.42
2022-12-25T17:36:13.607Z,78.38
2022-12-25T17:38:40.315Z,78.40
2022-12-25T17:41:09.240Z,78.54
2022-12-25T17:43:37.483Z,78.25
2022-12-25T17:46:07.170Z,78.49
2022-12-25T17:48:36.225Z,78.22
2022-12-25T17:51:06.212Z,78.88
2022-12-25T17:53:35.805Z,78.68
2022-12-25T17:56:02.401Z,78.66
2022-12-25T17:58:29.097Z,78.63
2022-12-25T18:00:55.713Z,79.04
2022-12-25T18:03:23.331Z,78.65
2022-12-25T18:05:50.265Z,79.36
2022-12-25T18:08:16.839Z,79.46
2022-12-25T18:10:44.119Z,79.50
2022-12-25T18:13:11.696Z,79.44
2022-12-25T18:15:40.195Z,79.14
2022-12-25T18:18:08.028Z,79.48
2022-12-25T18:20:40.296Z,79.50
2022-12-25T18:23:08.568Z,79.76
2022-12-25T18:25:40.172Z,79.49
2022-12-25T18:28:06.845Z,79.75
2022-12-25T18:30:33.456Z,79.69
2022-12-25T18:33:00.441Z,79.76
2022-12-25T18:35:29.944Z,79.76
2022-12-25T18:37:56.582Z,79.74
2022-12-25T18:40:23.413Z,79.98
2022-12-25T18:42:52.932Z,79.49
2022-12-25T18:45:21.442Z,80.13
2022-12-25T18:47:48.126Z,80.69
2022-12-25T18:50:15.552Z,80.25
2022-12-25T18:52:49.218Z,80.33
2022-12-25T18:55:18.081Z,79.91
2022-12-25T18:57:45.669Z,80.28
2022-12-25T19:00:13.227Z,80.13
2022-12-25T19:02:40.584Z,80.51
2022-12-25T19:05:07.685Z,79.91
2022-12-25T19:07:35.088Z,80.17
2022-12-25T19:10:02.443Z,80.32
2022-12-25T19:12:29.020Z,80.46
2022-12-25T19:14:55.684Z,80.02
2022-12-25T19:17:26.633Z,79.98
2022-12-25T19:19:57.894Z,80.07
2022-12-25T19:22:24.515Z,79.90
2022-12-25T19:24:51.156Z,80.27
2022-12-25T19:27:17.745Z,80.25
2022-12-25T19:29:44.364Z,80.01
2022-12-25T19:32:11.059Z,80.42
2022-12-25T19:34:37.905Z,80.28
2022-12-25T19:37:04.875Z,80.77
2022-12-25T19:39:31.438Z,80.83
2022-12-25T19:41:57.968Z,80.66
2022-12-25T19:44:24.987Z,80.60
2022-12-25T19:46:52.309Z,81.85
2022-12-25T19:49:19.017Z,80.53
2022-12-25T19:51:47.502Z,80.74
2022-12-25T19:54:20.614Z,80.98
2022-12-25T19:56:48.791Z,81.25
2022-12-25T19:59:16.355Z,81.46
2022-12-25T20:01:44.105Z,82.23
2022-12-25T20:04:11.989Z,81.54
2022-12-25T20:06:42.948Z,82.57
2022-12-25T20:09:14.572Z,82.30
2022-12-25T20:11:44.213Z,82.14
2022-12-25T20:14:14.417Z,81.39
2022-12-25T20:16:41.131Z,81.79
2022-12-25T20:19:08.624Z,81.92
2022-12-25T20:21:35.324Z,82.42
2022-12-25T20:24:02.137Z,81.69
2022-12-25T20:26:31.060Z,82.78
2022-12-25T20:28:58.772Z,82.30
2022-12-25T20:31:29.725Z,82.05
2022-12-25T20:33:59.120Z,82.65
2022-12-25T20:36:32.624Z,82.45
2022-12-25T20:39:03.989Z,83.09
2022-12-25T20:41:30.798Z,82.44
2022-12-25T20:43:58.369Z,81.91
2022-12-25T20:46:26.307Z,82.45
2022-12-25T20:48:53.453Z,82.79
2022-12-25T20:51:23.666Z,82.95
2022-12-25T20:53:51.250Z,83.05
2022-12-25T20:56:20.106Z,82.54
2022-12-25T20:58:47.515Z,82.74
2022-12-25T21:01:17.221Z,82.44
2022-12-25T21:03:44.406Z,83.23
2022-12-25T21:06:11.646Z,83.17
2022-12-25T21:08:38.718Z,82.66
2022-12-25T21:11:05.604Z,82.57
2022-12-25T21:13:36.843Z,82.44
2022-12-25T21:16:07.734Z,82.79
2022-12-25T21:18:35.016Z,82.53
2022-12-25T21:21:05.712Z,82.79
2022-12-25T21:23:35.240Z,83.09
2022-12-25T21:26:23.099Z,82.20
2022-12-25T21:28:52.221Z,82.85
2022-12-25T21:31:20.560Z,82.36
2022-12-25T21:33:55.210Z,83.02
2022-12-25T21:39:06.250Z,82.55
2022-12-25T21:41:34.286Z,83.14
2022-12-25T21:44:01.135Z,82.45
2022-12-25T21:46:28.345Z,83.69
2022-12-25T21:48:55.879Z,83.29
2022-12-25T21:51:46.452Z,82.88
2022-12-25T21:54:14.155Z,83.24
2022-12-25T21:56:45.446Z,82.43
2022-12-25T21:59:16.012Z,83.08
2022-12-25T22:01:42.939Z,82.65
2022-12-25T22:04:10.345Z,83.40
2022-12-25T22:06:56.899Z,83.18
2022-12-25T22:09:23.992Z,83.74
2022-12-25T22:12:10.478Z,83.17
2022-12-25T22:14:57.499Z,83.43
2022-12-25T22:17:48.489Z,83.77
2022-12-25T22:20:18.274Z,83.55
2022-12-25T22:22:45.263Z,82.94
2022-12-25T22:25:13.009Z,83.00
2022-12-25T22:27:41.505Z,83.34
2022-12-25T22:30:12.068Z,83.36
2022-12-25T22:32:39.667Z,83.42
2022-12-25T22:35:06.935Z,82.79
2022-12-25T22:37:33.673Z,84.02
2022-12-25T22:40:02.340Z,83.68
2022-12-25T22:42:29.091Z,82.82
2022-12-25T22:44:55.734Z,83.85
2022-12-25T22:47:22.463Z,83.85
2022-12-25T22:49:49.634Z,84.12
2022-12-25T22:52:16.886Z,83.59
2022-12-25T22:54:43.647Z,83.01
2022-12-25T22:57:10.510Z,83.83
2022-12-25T22:59:37.076Z,83.89
2022-12-25T23:02:04.331Z,83.41
2022-12-25T23:04:31.613Z,83.61
2022-12-25T23:06:58.340Z,83.73
2022-12-25T23:09:27.946Z,83.26
2022-12-25T23:11:57.372Z,83.98
2022-12-25T23:14:41.691Z,83.83
2022-12-25T23:17:33.161Z,82.85
2022-12-25T23:20:20.658Z,83.33
2022-12-25T23:23:07.333Z,83.58
2022-12-25T23:25:55.239Z,82.77
2022-12-25T23:28:41.940Z,83.57
2022-12-25T23:31:09.427Z,83.56
2022-12-25T23:33:36.243Z,83.73
2022-12-25T23:36:03.094Z,83.03
2022-12-25T23:38:29.652Z,83.78
2022-12-25T23:40:56.212Z,83.01
2022-12-25T23:43:22.894Z,82.73
2022-12-25T23:45:49.529Z,82.83
2022-12-25T23:48:16.200Z,83.08
2022-12-25T23:50:42.843Z,82.65
2022-12-25T23:53:10.966Z,83.31
2022-12-25T23:55:37.622Z,83.29
2022-12-25T23:58:04.541Z,82.59
